createdAt,value
2022-08-05T00:01:27.880Z,68.67
2022-08-05T00:03:54.850Z,69.51
2022-08-05T00:06:30.792Z,70.37
2022-08-05T00:09:00.720Z,69.37
2022-08-05T00:11:34.533Z,69.10
2022-08-05T00:14:12.955Z,69.59
2022-08-05T00:16:52.369Z,69.09
2022-08-05T00:19:19.686Z,69.15
2022-08-05T00:21:48.684Z,69.83
2022-08-05T00:24:18.844Z,69.45
2022-08-05T00:26:52.191Z,70.19
2022-08-05T00:29:22.792Z,71.34
2022-08-05T00:32:10.081Z,70.33
2022-08-05T00:34:56.931Z,71.35
2022-08-05T00:37:27.217Z,70.47
2022-08-05T00:40:13.420Z,71.17
2022-08-05T00:42:44.243Z,72.46
2022-08-05T00:45:15.845Z,71.16
2022-08-05T00:47:56.640Z,71.67
2022-08-05T00:50:25.505Z,71.48
2022-08-05T00:52:53.395Z,72.37
2022-08-05T00:55:21.855Z,71.50
2022-08-05T00:57:58.127Z,74.37
2022-08-05T01:00:26.253Z,74.47
2022-08-05T01:02:53.078Z,73.97
2022-08-05T01:05:19.868Z,74.13
2022-08-05T01:08:41.080Z,73.26
2022-08-05T01:11:00.904Z,75.81
2022-08-05T01:13:58.642Z,74.95
2022-08-05T01:16:50.946Z,76.88
2022-08-05T01:19:30.083Z,74.32
2022-08-05T01:22:36.081Z,75.20
2022-08-05T01:25:41.148Z,77.68
2022-08-05T01:28:29.902Z,76.63
2022-08-05T01:31:07.454Z,76.45
2022-08-05T01:33:39.061Z,75.14
2022-08-05T01:36:16.158Z,75.64
2022-08-05T01:38:46.034Z,76.66
2022-08-05T01:41:18.146Z,78.48
2022-08-05T01:43:50.033Z,76.49
2022-08-05T01:46:41.333Z,78.22
2022-08-05T01:49:23.042Z,77.31
2022-08-05T01:51:54.947Z,76.44
2022-08-05T01:54:25.655Z,78.01
2022-08-05T01:58:13.082Z,79.25
2022-08-05T01:59:47.024Z,82.54
2022-08-05T02:02:16.039Z,79.79
2022-08-05T02:04:46.113Z,80.57
2022-08-05T02:07:21.928Z,82.01
2022-08-05T02:09:51.133Z,83.55
2022-08-05T02:12:44.820Z,83.75
2022-08-05T02:15:33.563Z,85.95
2022-08-05T02:18:31.907Z,84.67
2022-08-05T02:21:06.532Z,85.66
2022-08-05T02:23:44.919Z,85.64
2022-08-05T02:26:17.173Z,82.42
2022-08-05T02:28:46.371Z,84.73
2022-08-05T02:31:21.115Z,86.16
2022-08-05T02:33:57.245Z,85.80
2022-08-05T02:36:27.436Z,83.78
2022-08-05T02:38:56.787Z,85.43
2022-08-05T02:41:28.426Z,82.08
2022-08-05T02:44:12.189Z,82.97
2022-08-05T02:46:43.927Z,85.56
2022-08-05T02:49:21.826Z,87.44
2022-08-05T02:52:02.944Z,88.09
2022-08-05T02:54:35.687Z,88.67
2022-08-05T02:57:10.117Z,89.44
2022-08-05T02:59:55.504Z,89.19
2022-08-05T03:02:28.287Z,90.11
2022-08-05T03:04:57.416Z,91.04
2022-08-05T03:07:48.530Z,91.29
2022-08-05T03:10:15.593Z,89.57
2022-08-05T03:12:51.901Z,87.44
2022-08-05T03:15:19.092Z,91.38
2022-08-05T03:17:45.943Z,86.25
2022-08-05T03:20:13.382Z,87.31
2022-08-05T03:22:44.236Z,88.56
2022-08-05T03:26:03.765Z,90.11
2022-08-05T03:28:01.518Z,88.08
2022-08-05T03:30:34.082Z,90.20
2022-08-05T03:33:06.095Z,90.91
2022-08-05T03:35:33.868Z,90.78
2022-08-05T03:38:07.523Z,91.12
2022-08-05T03:40:34.225Z,92.96
2022-08-05T03:43:58.503Z,92.76
2022-08-05T03:45:57.129Z,93.40
2022-08-05T03:48:25.956Z,93.03
2022-08-05T03:52:38.910Z,93.65
2022-08-05T03:55:50.833Z,92.00
2022-08-05T03:57:35.135Z,88.45
2022-08-05T04:00:15.916Z,87.30
2022-08-05T04:02:57.872Z,87.46
2022-08-05T04:05:33.436Z,88.28
2022-08-05T04:08:03.596Z,87.71
2022-08-05T04:10:37.888Z,87.54
2022-08-05T04:13:07.235Z,89.41
2022-08-05T04:15:36.165Z,89.54
2022-08-05T04:18:08.018Z,89.32
2022-08-05T04:20:36.455Z,90.38
2022-08-05T04:23:03.017Z,91.14
2022-08-05T04:25:57.620Z,90.75
2022-08-05T04:28:17.710Z,87.64
2022-08-05T04:30:44.837Z,90.10
2022-08-05T04:33:12.114Z,87.45
2022-08-05T04:36:16.103Z,88.19
2022-08-05T04:38:39.471Z,87.69
2022-08-05T04:41:07.379Z,88.91
2022-08-05T04:43:36.344Z,87.94
2022-08-05T04:46:04.572Z,87.25
2022-08-05T04:48:31.873Z,87.29
2022-08-05T04:51:02.514Z,87.93
2022-08-05T04:53:33.392Z,87.11
2022-08-05T04:56:33.693Z,89.18
2022-08-05T04:58:49.033Z,90.49
2022-08-05T05:01:15.858Z,89.07
2022-08-05T05:04:02.322Z,88.41
2022-08-05T05:06:39.654Z,87.48
2022-08-05T05:09:17.466Z,88.29
2022-08-05T05:11:53.878Z,87.64
2022-08-05T05:14:27.708Z,87.46
2022-08-05T05:17:01.371Z,90.83
2022-08-05T05:19:36.976Z,87.32
2022-08-05T05:22:23.986Z,88.90
2022-08-05T05:24:58.465Z,87.69
2022-08-05T05:27:45.168Z,88.64
2022-08-05T05:30:15.634Z,87.89
2022-08-05T05:32:57.081Z,88.02
2022-08-05T05:35:29.122Z,88.57
2022-08-05T05:38:03.013Z,88.22
2022-08-05T05:40:32.093Z,92.12
2022-08-05T05:42:59.815Z,87.97
2022-08-05T05:45:29.173Z,88.43
2022-08-05T05:48:06.280Z,89.76
2022-08-05T05:50:43.820Z,88.16
2022-08-05T05:53:21.983Z,88.91
2022-08-05T05:55:52.219Z,89.04
2022-08-05T05:58:31.938Z,88.60
2022-08-05T06:01:12.051Z,87.92
2022-08-05T06:04:02.108Z,89.00
2022-08-05T06:06:33.017Z,88.65
2022-08-05T06:09:00.033Z,89.31
2022-08-05T06:11:26.592Z,88.47
2022-08-05T06:13:56.102Z,89.18
2022-08-05T06:16:30.697Z,89.12
2022-08-05T06:19:01.130Z,88.65
2022-08-05T06:21:36.514Z,89.56
2022-08-05T06:24:11.823Z,89.57
2022-08-05T06:26:51.558Z,88.77
2022-08-05T06:29:42.910Z,89.57
2022-08-05T06:32:21.095Z,89.18
2022-08-05T06:34:53.518Z,90.09
2022-08-05T06:37:57.507Z,90.01
2022-08-05T06:40:10.335Z,89.82
2022-08-05T06:42:37.626Z,88.19
2022-08-05T06:45:08.877Z,88.13
2022-08-05T06:48:37.162Z,88.93
2022-08-05T06:50:23.073Z,88.67
2022-08-05T06:52:58.787Z,87.98
2022-08-05T06:55:36.198Z,88.62
2022-08-05T06:58:20.594Z,89.37
2022-08-05T07:00:50.039Z,89.55
2022-08-05T07:03:17.013Z,88.47
2022-08-05T07:05:44.055Z,88.94
2022-08-05T07:08:12.781Z,88.67
2022-08-05T07:10:53.191Z,88.20
2022-08-05T07:13:57.817Z,89.00
2022-08-05T07:17:59.113Z,88.64
2022-08-05T07:22:28.559Z,88.18
2022-08-05T07:25:23.417Z,87.70
2022-08-05T07:27:58.852Z,87.37
2022-08-05T07:30:32.590Z,88.09
2022-08-05T07:33:01.073Z,87.12
2022-08-05T07:36:03.087Z,87.00
2022-08-05T07:38:32.250Z,86.47
2022-08-05T07:42:07.407Z,87.84
2022-08-05T07:43:56.886Z,87.72
2022-08-05T07:46:28.090Z,86.08
2022-08-05T07:49:02.172Z,86.97
2022-08-05T07:51:37.581Z,87.13
2022-08-05T07:54:08.324Z,87.85
2022-08-05T07:57:00.063Z,86.43
2022-08-05T07:59:31.114Z,86.76
2022-08-05T08:02:07.682Z,86.49
2022-08-05T08:04:42.016Z,86.63
2022-08-05T08:07:08.542Z,86.87
2022-08-05T08:09:35.303Z,87.81
2022-08-05T08:12:13.609Z,87.48
2022-08-05T08:14:47.016Z,87.17
2022-08-05T08:17:16.194Z,86.65
2022-08-05T08:20:20.996Z,86.25
2022-08-05T08:22:31.061Z,86.75
2022-08-05T08:25:03.262Z,86.55
2022-08-05T08:27:39.874Z,86.00
2022-08-05T08:30:29.414Z,85.34
2022-08-05T08:32:58.097Z,85.81
2022-08-05T08:35:35.262Z,85.39
2022-08-05T08:38:08.334Z,84.82
2022-08-05T08:40:39.393Z,84.71
2022-08-05T08:45:16.187Z,85.00
2022-08-05T08:45:54.991Z,84.73
2022-08-05T08:48:43.005Z,84.77
2022-08-05T08:52:01.683Z,84.25
2022-08-05T08:53:57.000Z,84.60
2022-08-05T08:56:27.025Z,84.23
2022-08-05T08:58:53.881Z,84.20
2022-08-05T09:01:20.815Z,83.65
2022-08-05T09:03:54.332Z,82.97
2022-08-05T09:06:29.614Z,82.73
2022-08-05T09:08:59.442Z,82.74
2022-08-05T09:11:51.071Z,82.45
2022-08-05T09:14:56.546Z,82.48
2022-08-05T09:17:05.638Z,83.23
2022-08-05T09:19:55.048Z,83.32
2022-08-05T09:22:31.185Z,84.28
2022-08-05T09:25:13.663Z,83.07
2022-08-05T09:28:04.890Z,83.66
2022-08-05T09:30:34.247Z,82.32
2022-08-05T09:33:04.977Z,82.59
2022-08-05T09:35:32.809Z,82.22
2022-08-05T09:38:16.439Z,82.26
2022-08-05T09:40:52.131Z,81.57
2022-08-05T09:43:46.169Z,81.68
2022-08-05T09:46:29.526Z,80.31
2022-08-05T09:49:07.832Z,80.17
2022-08-05T09:51:44.459Z,80.85
2022-08-05T09:54:16.124Z,80.44
2022-08-05T09:56:52.297Z,80.19
2022-08-05T09:59:24.099Z,80.25
2022-08-05T10:01:57.764Z,80.53
2022-08-05T10:04:35.926Z,78.88
2022-08-05T10:07:14.067Z,80.09
2022-08-05T10:10:04.101Z,80.25
2022-08-05T10:12:49.848Z,78.56
2022-08-05T10:15:21.627Z,77.58
2022-08-05T10:18:03.428Z,78.63
2022-08-05T10:20:32.058Z,78.25
2022-08-05T10:23:00.904Z,76.95
2022-08-05T10:25:27.784Z,76.52
2022-08-05T10:28:13.272Z,76.09
2022-08-05T10:32:49.685Z,75.23
2022-08-05T10:33:35.158Z,73.50
2022-08-05T10:36:04.479Z,73.09
2022-08-05T10:38:33.049Z,72.01
2022-08-05T10:41:23.409Z,70.75
2022-08-05T10:44:05.757Z,67.98
2022-08-05T10:46:43.566Z,68.02
2022-08-05T10:49:16.894Z,65.81
2022-08-05T10:51:57.519Z,64.59
2022-08-05T10:54:56.363Z,64.74
2022-08-05T10:57:29.496Z,65.91
2022-08-05T11:00:20.665Z,64.46
2022-08-05T11:03:23.857Z,64.53
2022-08-05T11:06:15.250Z,63.90
2022-08-05T11:09:18.703Z,64.19
2022-08-05T11:11:59.210Z,64.26
2022-08-05T11:18:00.484Z,61.96
2022-08-05T11:20:43.745Z,60.59
2022-08-05T11:23:33.239Z,57.82
2022-08-05T11:26:29.154Z,59.94
2022-08-05T11:29:12.788Z,56.93
2022-08-05T11:31:58.204Z,60.09
2022-08-05T11:34:57.255Z,54.94
2022-08-05T11:38:29.410Z,54.51
2022-08-05T11:41:34.170Z,54.74
2022-08-05T11:44:04.925Z,54.94
2022-08-05T11:47:10.314Z,54.46
2022-08-05T11:49:27.831Z,56.16
2022-08-05T11:51:54.710Z,56.16
2022-08-05T11:54:33.954Z,53.86
2022-08-05T11:57:08.162Z,52.42
2022-08-05T11:59:49.712Z,55.25
2022-08-05T12:02:23.884Z,54.00
2022-08-05T12:04:59.397Z,53.73
2022-08-05T12:08:03.554Z,55.91
2022-08-05T12:10:19.586Z,54.91
2022-08-05T12:12:58.455Z,53.30
2022-08-05T12:15:35.971Z,52.64
2022-08-05T12:18:10.766Z,53.26
2022-08-05T12:20:39.107Z,54.20
2022-08-05T12:23:12.017Z,52.02
2022-08-05T12:25:56.809Z,50.71
2022-08-05T12:28:37.964Z,50.71
2022-08-05T12:31:05.607Z,52.86
2022-08-05T12:33:36.787Z,49.32
2022-08-05T12:36:07.900Z,51.18
2022-08-05T12:38:37.853Z,52.82
2022-08-05T12:41:13.397Z,52.59
2022-08-05T12:43:55.692Z,50.29
2022-08-05T12:46:32.848Z,50.48
2022-08-05T12:49:14.578Z,50.76
2022-08-05T12:52:13.825Z,50.21
2022-08-05T12:54:37.088Z,51.93
2022-08-05T12:57:09.665Z,51.50
2022-08-05T13:01:56.979Z,49.23
2022-08-05T13:02:36.062Z,52.06
2022-08-05T13:05:06.353Z,49.03
2022-08-05T13:07:59.791Z,51.49
2022-08-05T13:10:20.483Z,51.60
2022-08-05T13:12:57.155Z,51.03
2022-08-05T13:15:41.680Z,50.51
2022-08-05T13:18:20.057Z,50.65
2022-08-05T13:20:49.218Z,49.60
2022-08-05T13:23:18.270Z,52.01
2022-08-05T13:25:52.663Z,53.46
2022-08-05T13:28:25.553Z,54.05
2022-08-05T13:30:53.342Z,55.66
2022-08-05T13:34:21.749Z,56.56
2022-08-05T13:36:09.167Z,57.12
2022-08-05T13:38:42.401Z,57.54
2022-08-05T13:41:10.908Z,57.16
2022-08-05T13:43:44.093Z,57.39
2022-08-05T13:46:12.875Z,57.31
2022-08-05T13:49:00.331Z,57.64
2022-08-05T13:51:36.504Z,57.61
2022-08-05T13:54:03.512Z,57.76
2022-08-05T13:56:39.519Z,58.43
2022-08-05T13:59:19.484Z,58.56
2022-08-05T14:01:56.503Z,57.31
2022-08-05T14:04:49.660Z,57.69
2022-08-05T14:07:56.493Z,57.67
2022-08-05T14:10:04.510Z,57.03
2022-08-05T14:12:35.499Z,56.35
2022-08-05T14:15:05.877Z,55.98
2022-08-05T14:17:48.541Z,55.83
2022-08-05T14:20:17.651Z,55.36
2022-08-05T14:22:49.880Z,54.82
2022-08-05T14:25:21.739Z,55.22
2022-08-05T14:27:50.846Z,55.58
2022-08-05T14:30:20.388Z,55.41
2022-08-05T14:32:48.772Z,54.89
2022-08-05T14:35:16.156Z,55.17
2022-08-05T14:37:52.192Z,54.36
2022-08-05T14:40:21.747Z,55.11
2022-08-05T14:42:51.187Z,54.74
2022-08-05T14:45:18.417Z,53.46
2022-08-05T14:48:03.805Z,54.25
2022-08-05T14:50:31.644Z,54.58
2022-08-05T14:52:59.599Z,53.71
2022-08-05T14:55:28.728Z,53.75
2022-08-05T14:58:11.418Z,52.71
2022-08-05T15:00:39.775Z,53.82
2022-08-05T15:03:25.700Z,51.78
2022-08-05T15:06:07.757Z,52.86
2022-08-05T15:08:59.315Z,53.07
2022-08-05T15:11:51.573Z,52.04
2022-08-05T15:14:11.945Z,50.88
2022-08-05T15:16:58.463Z,49.32
2022-08-05T15:19:26.103Z,50.42
2022-08-05T15:21:52.692Z,50.91
2022-08-05T15:24:19.201Z,49.60
2022-08-05T15:26:46.630Z,50.80
2022-08-05T15:29:15.189Z,50.42
2022-08-05T15:31:41.757Z,48.77
2022-08-05T15:34:31.578Z,48.79
2022-08-05T15:36:54.720Z,47.68
2022-08-05T15:41:03.338Z,44.21
2022-08-05T15:42:53.514Z,44.93
2022-08-05T15:44:55.002Z,44.96
2022-08-05T15:47:22.558Z,41.25
2022-08-05T15:49:58.663Z,42.27
2022-08-05T15:52:52.664Z,40.76
2022-08-05T15:55:15.451Z,41.25
2022-08-05T15:57:43.725Z,42.34
2022-08-05T16:00:12.129Z,43.02
2022-08-05T16:02:39.023Z,41.42
2022-08-05T16:05:09.695Z,41.31
2022-08-05T16:07:38.026Z,42.45
2022-08-05T16:10:12.951Z,43.06
2022-08-05T16:12:39.904Z,42.15
2022-08-05T16:15:06.770Z,43.59
2022-08-05T16:17:36.128Z,43.31
2022-08-05T16:20:11.226Z,41.74
2022-08-05T16:22:38.776Z,42.05
2022-08-05T16:25:08.170Z,43.49
2022-08-05T16:27:59.791Z,42.25
2022-08-05T16:30:26.686Z,42.08
2022-08-05T16:32:55.800Z,41.33
2022-08-05T16:35:27.747Z,43.32
2022-08-05T16:38:15.603Z,42.60
2022-08-05T16:40:42.176Z,41.13
2022-08-05T16:43:16.473Z,42.27
2022-08-05T16:46:05.101Z,41.97
2022-08-05T16:48:33.431Z,41.96
2022-08-05T16:51:00.660Z,41.42
2022-08-05T16:54:02.055Z,40.29
2022-08-05T16:56:13.629Z,40.86
2022-08-05T16:58:40.780Z,41.62
2022-08-05T17:01:09.376Z,39.48
2022-08-05T17:03:37.285Z,40.47
2022-08-05T17:06:05.774Z,39.56
2022-08-05T17:08:52.059Z,41.00
2022-08-05T17:11:20.446Z,39.78
2022-08-05T17:13:50.815Z,38.58
2022-08-05T17:16:32.833Z,39.69
2022-08-05T17:19:00.833Z,40.27
2022-08-05T17:21:35.421Z,40.41
2022-08-05T17:24:19.634Z,40.72
2022-08-05T17:26:50.777Z,39.55
2022-08-05T17:29:17.311Z,40.18
2022-08-05T17:31:58.206Z,40.75
2022-08-05T17:34:29.812Z,40.18
2022-08-05T17:36:58.421Z,41.21
2022-08-05T17:39:33.223Z,41.18
2022-08-05T17:42:19.608Z,41.74
2022-08-05T17:44:50.289Z,41.49
2022-08-05T17:47:21.781Z,40.37
2022-08-05T17:49:52.095Z,42.07
2022-08-05T17:52:29.977Z,41.79
2022-08-05T17:54:56.473Z,42.11
2022-08-05T17:57:23.192Z,42.43
2022-08-05T18:00:04.872Z,41.15
2022-08-05T18:02:34.141Z,42.58
2022-08-05T18:05:03.152Z,42.62
2022-08-05T18:07:41.414Z,41.75
2022-08-05T18:10:14.033Z,42.80
2022-08-05T18:12:47.463Z,42.74
2022-08-05T18:15:14.132Z,43.30
2022-08-05T18:18:00.596Z,42.90
2022-08-05T18:20:29.503Z,43.26
2022-08-05T18:22:58.713Z,43.67
2022-08-05T18:25:36.820Z,44.11
2022-08-05T18:28:06.164Z,44.53
2022-08-05T18:30:33.585Z,44.71
2022-08-05T18:33:01.228Z,44.71
2022-08-05T18:36:01.269Z,44.95
2022-08-05T18:38:16.411Z,45.07
2022-08-05T18:41:53.902Z,45.49
2022-08-05T18:43:38.383Z,45.88
2022-08-05T18:46:10.140Z,45.99
2022-08-05T18:48:41.695Z,46.13
2022-08-05T18:52:04.972Z,46.21
2022-08-05T18:54:14.212Z,46.66
2022-08-05T18:56:40.789Z,46.81
2022-08-05T18:59:43.523Z,46.52
2022-08-05T19:01:56.789Z,46.68
2022-08-05T19:04:24.806Z,45.55
2022-08-05T19:06:51.665Z,45.67
2022-08-05T19:09:21.085Z,45.98
2022-08-05T19:12:00.113Z,46.22
2022-08-05T19:14:59.171Z,46.04
2022-08-05T19:17:15.223Z,46.12
2022-08-05T19:19:47.026Z,46.55
2022-08-05T19:22:17.348Z,46.98
2022-08-05T19:24:54.500Z,47.13
2022-08-05T19:27:22.979Z,47.49
2022-08-05T19:29:49.967Z,47.53
2022-08-05T19:32:16.531Z,47.60
2022-08-05T19:34:55.076Z,47.87
2022-08-05T19:37:35.097Z,48.34
2022-08-05T19:40:12.686Z,48.70
2022-08-05T19:42:41.833Z,48.83
2022-08-05T19:45:27.458Z,49.11
2022-08-05T19:47:59.847Z,49.15
2022-08-05T19:50:26.566Z,49.33
2022-08-05T19:52:53.051Z,49.67
2022-08-05T19:56:14.545Z,49.99
2022-08-05T19:58:28.700Z,50.43
2022-08-05T20:00:53.784Z,50.30
2022-08-05T20:03:20.330Z,50.40
2022-08-05T20:05:51.108Z,51.08
2022-08-05T20:08:18.547Z,50.79
2022-08-05T20:10:45.118Z,50.84
2022-08-05T20:13:16.888Z,51.83
2022-08-05T20:15:51.961Z,51.41
2022-08-05T20:18:33.649Z,51.29
2022-08-05T20:21:04.753Z,51.53
2022-08-05T20:23:39.226Z,52.23
2022-08-05T20:26:17.349Z,52.06
2022-08-05T20:28:53.957Z,52.59
2022-08-05T20:31:28.748Z,52.64
2022-08-05T20:34:10.593Z,53.05
2022-08-05T20:36:39.005Z,52.82
2022-08-05T20:39:12.867Z,53.70
2022-08-05T20:41:43.888Z,54.86
2022-08-05T20:44:16.928Z,53.12
2022-08-05T20:46:44.997Z,53.62
2022-08-05T20:49:12.428Z,54.19
2022-08-05T20:51:39.123Z,53.93
2022-08-05T20:54:06.439Z,54.18
2022-08-05T20:56:42.476Z,53.82
2022-08-05T20:59:14.111Z,54.25
2022-08-05T21:01:45.775Z,54.13
2022-08-05T21:04:12.419Z,53.92
2022-08-05T21:06:45.236Z,54.29
2022-08-05T21:09:14.350Z,54.02
2022-08-05T21:12:09.035Z,54.76
2022-08-05T21:14:34.595Z,54.42
2022-08-05T21:17:01.700Z,54.32
2022-08-05T21:19:29.659Z,54.84
2022-08-05T21:22:14.645Z,55.13
2022-08-05T21:24:44.366Z,54.42
2022-08-05T21:27:15.261Z,55.09
2022-08-05T21:29:43.235Z,54.76
2022-08-05T21:32:19.895Z,54.76
2022-08-05T21:34:55.936Z,54.78
2022-08-05T21:37:33.806Z,55.47
2022-08-05T21:40:05.834Z,55.05
2022-08-05T21:42:44.179Z,55.57
2022-08-05T21:45:24.090Z,55.22
2022-08-05T21:47:56.355Z,55.45
2022-08-05T21:50:25.946Z,55.50
2022-08-05T21:52:52.599Z,55.55
2022-08-05T21:55:23.724Z,55.35
2022-08-05T21:58:06.556Z,55.35
2022-08-05T22:00:33.127Z,55.63
2022-08-05T22:03:00.544Z,55.77
2022-08-05T22:05:27.457Z,55.95
2022-08-05T22:07:59.581Z,56.58
2022-08-05T22:10:29.055Z,56.14
2022-08-05T22:12:58.875Z,56.39
2022-08-05T22:16:01.660Z,56.36
2022-08-05T22:18:14.500Z,56.63
2022-08-05T22:20:41.815Z,56.55
2022-08-05T22:24:01.968Z,56.83
2022-08-05T22:26:34.324Z,57.68
2022-08-05T22:29:02.003Z,57.75
2022-08-05T22:31:30.015Z,57.61
2022-08-05T22:34:01.079Z,58.25
2022-08-05T22:36:29.073Z,58.27
2022-08-05T22:38:55.877Z,58.01
2022-08-05T22:41:26.395Z,58.20
2022-08-05T22:44:12.117Z,59.14
2022-08-05T22:46:40.712Z,58.49
2022-08-05T22:49:12.161Z,59.52
2022-08-05T22:52:06.444Z,58.77
2022-08-05T22:54:36.904Z,58.57
2022-08-05T22:57:04.984Z,59.12
2022-08-05T22:59:42.978Z,58.59
2022-08-05T23:02:13.717Z,58.42
2022-08-05T23:04:43.637Z,58.63
2022-08-05T23:07:18.550Z,58.81
2022-08-05T23:09:53.482Z,59.16
2022-08-05T23:12:28.654Z,59.46
2022-08-05T23:14:55.452Z,58.94
2022-08-05T23:17:34.968Z,59.21
2022-08-05T23:20:16.522Z,59.04
2022-08-05T23:22:47.337Z,59.12
2022-08-05T23:25:51.131Z,59.57
2022-08-05T23:28:07.032Z,59.59
2022-08-05T23:30:40.560Z,59.69
2022-08-05T23:33:21.880Z,59.25
2022-08-05T23:35:52.678Z,59.40
2022-08-05T23:38:22.854Z,62.10
2022-08-05T23:40:50.627Z,60.59
2022-08-05T23:43:25.648Z,59.80
2022-08-05T23:46:05.189Z,59.69
2022-08-05T23:48:47.039Z,60.45
2022-08-05T23:51:28.289Z,61.64
2022-08-05T23:54:01.009Z,61.54
2022-08-05T23:56:27.862Z,61.82
2022-08-05T23:58:54.373Z,62.24
